sensor_id;sensor_type;location;lat;lon;timestamp;P1;durP1;ratioP1;P2;durP2;ratioP2
75787;SDS011;64406;50.024;14.492;2022-12-01T00:02:05;37.27;;;18.93;;
75787;SDS011;64406;50.024;14.492;2022-12-01T00:04:31;42.60;;;20.47;;
75787;SDS011;64406;50.024;14.492;2022-12-01T00:06:56;45.77;;;20.13;;
75787;SDS011;64406;50.024;14.492;2022-12-01T00:09:22;36.23;;;19.17;;
75787;SDS011;64406;50.024;14.492;2022-12-01T00:12:06;41.03;;;19.73;;
75787;SDS011;64406;50.024;14.492;2022-12-01T00:14:32;42.07;;;21.33;;
75787;SDS011;64406;50.024;14.492;2022-12-01T00:16:57;41.17;;;20.17;;
75787;SDS011;64406;50.024;14.492;2022-12-01T00:19:24;44.97;;;21.00;;
75787;SDS011;64406;50.024;14.492;2022-12-01T00:21:50;48.37;;;21.13;;
75787;SDS011;64406;50.024;14.492;2022-12-01T00:24:15;46.20;;;19.37;;
75787;SDS011;64406;50.024;14.492;2022-12-01T00:26:41;44.07;;;20.30;;
75787;SDS011;64406;50.024;14.492;2022-12-01T00:29:07;43.33;;;21.20;;
75787;SDS011;64406;50.024;14.492;2022-12-01T00:31:33;46.67;;;20.80;;
75787;SDS011;64406;50.024;14.492;2022-12-01T00:33:58;37.97;;;19.90;;
75787;SDS011;64406;50.024;14.492;2022-12-01T00:36:24;40.73;;;20.20;;
75787;SDS011;64406;50.024;14.492;2022-12-01T00:38:51;42.57;;;19.83;;
75787;SDS011;64406;50.024;14.492;2022-12-01T00:41:18;40.13;;;18.70;;
75787;SDS011;64406;50.024;14.492;2022-12-01T00:43:43;43.03;;;21.43;;
75787;SDS011;64406;50.024;14.492;2022-12-01T00:46:09;47.10;;;21.00;;
75787;SDS011;64406;50.024;14.492;2022-12-01T00:48:34;43.27;;;20.87;;
75787;SDS011;64406;50.024;14.492;2022-12-01T00:51:00;46.17;;;22.70;;
75787;SDS011;64406;50.024;14.492;2022-12-01T00:53:25;40.93;;;20.60;;
75787;SDS011;64406;50.024;14.492;2022-12-01T00:55:51;50.57;;;21.87;;
75787;SDS011;64406;50.024;14.492;2022-12-01T00:58:19;48.37;;;22.77;;
75787;SDS011;64406;50.024;14.492;2022-12-01T01:00:46;43.57;;;22.80;;
75787;SDS011;64406;50.024;14.492;2022-12-01T01:03:12;42.43;;;19.47;;
75787;SDS011;64406;50.024;14.492;2022-12-01T01:05:38;45.80;;;21.87;;
75787;SDS011;64406;50.024;14.492;2022-12-01T01:08:05;46.43;;;22.87;;
75787;SDS011;64406;50.024;14.492;2022-12-01T01:10:38;45.57;;;22.03;;
75787;SDS011;64406;50.024;14.492;2022-12-01T01:13:04;42.50;;;20.53;;
75787;SDS011;64406;50.024;14.492;2022-12-01T01:15:30;45.13;;;22.13;;
75787;SDS011;64406;50.024;14.492;2022-12-01T01:17:56;45.07;;;21.13;;
75787;SDS011;64406;50.024;14.492;2022-12-01T01:20:21;48.03;;;22.03;;
75787;SDS011;64406;50.024;14.492;2022-12-01T01:22:47;43.53;;;20.43;;
75787;SDS011;64406;50.024;14.492;2022-12-01T01:25:12;44.13;;;20.97;;
75787;SDS011;64406;50.024;14.492;2022-12-01T01:27:38;47.37;;;21.73;;
75787;SDS011;64406;50.024;14.492;2022-12-01T01:30:04;45.00;;;21.40;;
75787;SDS011;64406;50.024;14.492;2022-12-01T01:32:30;46.60;;;21.53;;
75787;SDS011;64406;50.024;14.492;2022-12-01T01:34:55;49.03;;;22.90;;
75787;SDS011;64406;50.024;14.492;2022-12-01T01:37:21;49.42;;;23.02;;
75787;SDS011;64406;50.024;14.492;2022-12-01T01:39:47;48.67;;;23.90;;
75787;SDS011;64406;50.024;14.492;2022-12-01T01:42:13;49.67;;;22.80;;
75787;SDS011;64406;50.024;14.492;2022-12-01T01:47:16;43.70;;;21.03;;
75787;SDS011;64406;50.024;14.492;2022-12-01T01:50:08;41.37;;;20.37;;
75787;SDS011;64406;50.024;14.492;2022-12-01T01:52:41;40.43;;;19.97;;
75787;SDS011;64406;50.024;14.492;2022-12-01T01:55:09;44.73;;;21.33;;
75787;SDS011;64406;50.024;14.492;2022-12-01T01:57:36;47.57;;;21.67;;
75787;SDS011;64406;50.024;14.492;2022-12-01T02:00:04;53.10;;;24.87;;
75787;SDS011;64406;50.024;14.492;2022-12-01T02:02:38;45.30;;;23.00;;
75787;SDS011;64406;50.024;14.492;2022-12-01T02:05:11;47.23;;;21.87;;
75787;SDS011;64406;50.024;14.492;2022-12-01T02:07:40;43.30;;;21.33;;
75787;SDS011;64406;50.024;14.492;2022-12-01T02:10:07;55.97;;;22.80;;
75787;SDS011;64406;50.024;14.492;2022-12-01T02:15:26;43.00;;;21.43;;
75787;SDS011;64406;50.024;14.492;2022-12-01T02:20:41;41.53;;;20.80;;
75787;SDS011;64406;50.024;14.492;2022-12-01T02:26:29;41.07;;;20.43;;
75787;SDS011;64406;50.024;14.492;2022-12-01T02:32:28;43.47;;;20.07;;
75787;SDS011;64406;50.024;14.492;2022-12-01T02:35:21;39.00;;;19.47;;
75787;SDS011;64406;50.024;14.492;2022-12-01T02:38:03;43.77;;;19.87;;
75787;SDS011;64406;50.024;14.492;2022-12-01T02:40:48;45.90;;;20.77;;
75787;SDS011;64406;50.024;14.492;2022-12-01T02:43:23;41.80;;;20.80;;
75787;SDS011;64406;50.024;14.492;2022-12-01T02:46:01;45.57;;;20.97;;
75787;SDS011;64406;50.024;14.492;2022-12-01T02:48:32;46.20;;;19.67;;
75787;SDS011;64406;50.024;14.492;2022-12-01T02:51:09;42.57;;;21.23;;
75787;SDS011;64406;50.024;14.492;2022-12-01T02:53:39;46.80;;;20.27;;
75787;SDS011;64406;50.024;14.492;2022-12-01T02:56:06;41.67;;;20.27;;
75787;SDS011;64406;50.024;14.492;2022-12-01T02:58:34;47.67;;;21.30;;
75787;SDS011;64406;50.024;14.492;2022-12-01T03:06:40;45.63;;;22.27;;
75787;SDS011;64406;50.024;14.492;2022-12-01T03:11:47;45.28;;;20.90;;
75787;SDS011;64406;50.024;14.492;2022-12-01T03:17:25;42.20;;;20.73;;
75787;SDS011;64406;50.024;14.492;2022-12-01T03:19:57;45.97;;;20.87;;
75787;SDS011;64406;50.024;14.492;2022-12-01T03:22:27;44.87;;;21.10;;
75787;SDS011;64406;50.024;14.492;2022-12-01T03:24:59;45.87;;;21.23;;
75787;SDS011;64406;50.024;14.492;2022-12-01T03:27:29;46.37;;;20.80;;
75787;SDS011;64406;50.024;14.492;2022-12-01T03:29:58;42.13;;;20.30;;
75787;SDS011;64406;50.024;14.492;2022-12-01T03:34:53;43.03;;;21.03;;
75787;SDS011;64406;50.024;14.492;2022-12-01T03:37:31;41.20;;;21.03;;
75787;SDS011;64406;50.024;14.492;2022-12-01T03:39:58;45.30;;;21.23;;
75787;SDS011;64406;50.024;14.492;2022-12-01T03:42:29;41.27;;;19.70;;
75787;SDS011;64406;50.024;14.492;2022-12-01T03:45:03;37.37;;;19.13;;
75787;SDS011;64406;50.024;14.492;2022-12-01T03:47:33;38.80;;;19.40;;
75787;SDS011;64406;50.024;14.492;2022-12-01T03:50:02;38.17;;;19.07;;
75787;SDS011;64406;50.024;14.492;2022-12-01T03:57:41;42.00;;;18.60;;
75787;SDS011;64406;50.024;14.492;2022-12-01T04:00:08;39.97;;;18.23;;
75787;SDS011;64406;50.024;14.492;2022-12-01T04:02:35;37.33;;;17.90;;
75787;SDS011;64406;50.024;14.492;2022-12-01T04:05:03;41.47;;;18.57;;
75787;SDS011;64406;50.024;14.492;2022-12-01T04:07:30;36.67;;;18.53;;
75787;SDS011;64406;50.024;14.492;2022-12-01T04:09:55;32.33;;;17.77;;
75787;SDS011;64406;50.024;14.492;2022-12-01T04:12:21;34.27;;;18.20;;
75787;SDS011;64406;50.024;14.492;2022-12-01T04:15:00;40.03;;;19.20;;
75787;SDS011;64406;50.024;14.492;2022-12-01T04:17:34;36.77;;;18.10;;
75787;SDS011;64406;50.024;14.492;2022-12-01T04:20:01;38.30;;;18.20;;
75787;SDS011;64406;50.024;14.492;2022-12-01T04:22:27;33.17;;;17.57;;
75787;SDS011;64406;50.024;14.492;2022-12-01T04:24:53;39.63;;;17.97;;
75787;SDS011;64406;50.024;14.492;2022-12-01T04:27:19;35.97;;;16.63;;
75787;SDS011;64406;50.024;14.492;2022-12-01T04:29:45;43.40;;;18.03;;
75787;SDS011;64406;50.024;14.492;2022-12-01T04:32:10;38.70;;;18.40;;
75787;SDS011;64406;50.024;14.492;2022-12-01T04:34:37;33.40;;;15.50;;
75787;SDS011;64406;50.024;14.492;2022-12-01T04:37:03;45.23;;;19.53;;
75787;SDS011;64406;50.024;14.492;2022-12-01T04:39:30;37.17;;;16.77;;
75787;SDS011;64406;50.024;14.492;2022-12-01T04:41:55;44.40;;;18.87;;
75787;SDS011;64406;50.024;14.492;2022-12-01T04:44:21;37.30;;;17.70;;
75787;SDS011;64406;50.024;14.492;2022-12-01T04:46:47;38.03;;;17.93;;
75787;SDS011;64406;50.024;14.492;2022-12-01T04:49:12;42.33;;;18.27;;
75787;SDS011;64406;50.024;14.492;2022-12-01T04:51:38;34.73;;;17.40;;
75787;SDS011;64406;50.024;14.492;2022-12-01T04:54:04;36.03;;;17.10;;
75787;SDS011;64406;50.024;14.492;2022-12-01T04:56:30;43.37;;;19.33;;
75787;SDS011;64406;50.024;14.492;2022-12-01T04:58:57;45.33;;;19.20;;
75787;SDS011;64406;50.024;14.492;2022-12-01T05:01:23;41.00;;;16.80;;
75787;SDS011;64406;50.024;14.492;2022-12-01T05:03:49;33.60;;;16.83;;
75787;SDS011;64406;50.024;14.492;2022-12-01T05:06:16;38.23;;;18.40;;
75787;SDS011;64406;50.024;14.492;2022-12-01T05:08:47;43.47;;;18.53;;
75787;SDS011;64406;50.024;14.492;2022-12-01T05:11:13;39.57;;;19.40;;
75787;SDS011;64406;50.024;14.492;2022-12-01T05:13:40;42.17;;;19.20;;
75787;SDS011;64406;50.024;14.492;2022-12-01T05:16:08;42.90;;;19.40;;
75787;SDS011;64406;50.024;14.492;2022-12-01T05:18:39;40.70;;;18.10;;
75787;SDS011;64406;50.024;14.492;2022-12-01T05:21:06;38.57;;;19.23;;
75787;SDS011;64406;50.024;14.492;2022-12-01T05:23:34;44.20;;;18.20;;
75787;SDS011;64406;50.024;14.492;2022-12-01T05:26:01;41.20;;;17.97;;
75787;SDS011;64406;50.024;14.492;2022-12-01T05:28:29;41.30;;;17.80;;
75787;SDS011;64406;50.024;14.492;2022-12-01T05:30:54;42.83;;;18.00;;
75787;SDS011;64406;50.024;14.492;2022-12-01T05:33:21;35.67;;;17.60;;
75787;SDS011;64406;50.024;14.492;2022-12-01T05:35:48;36.43;;;18.47;;
75787;SDS011;64406;50.024;14.492;2022-12-01T05:38:14;41.87;;;19.10;;
75787;SDS011;64406;50.024;14.492;2022-12-01T05:40:40;40.23;;;18.13;;
75787;SDS011;64406;50.024;14.492;2022-12-01T05:43:06;42.13;;;20.33;;
75787;SDS011;64406;50.024;14.492;2022-12-01T05:45:32;42.27;;;18.40;;
75787;SDS011;64406;50.024;14.492;2022-12-01T05:47:59;40.23;;;17.47;;
75787;SDS011;64406;50.024;14.492;2022-12-01T05:50:26;36.70;;;17.13;;
75787;SDS011;64406;50.024;14.492;2022-12-01T05:52:53;42.60;;;18.27;;
75787;SDS011;64406;50.024;14.492;2022-12-01T05:55:19;34.43;;;16.47;;
75787;SDS011;64406;50.024;14.492;2022-12-01T05:57:45;37.77;;;16.07;;
75787;SDS011;64406;50.024;14.492;2022-12-01T06:00:11;44.10;;;19.20;;
75787;SDS011;64406;50.024;14.492;2022-12-01T06:02:40;41.83;;;18.33;;
75787;SDS011;64406;50.024;14.492;2022-12-01T06:05:06;34.53;;;16.33;;
75787;SDS011;64406;50.024;14.492;2022-12-01T06:07:33;35.13;;;16.60;;
75787;SDS011;64406;50.024;14.492;2022-12-01T06:09:59;42.70;;;17.87;;
75787;SDS011;64406;50.024;14.492;2022-12-01T06:12:26;41.03;;;17.73;;
75787;SDS011;64406;50.024;14.492;2022-12-01T06:14:52;29.13;;;14.57;;
75787;SDS011;64406;50.024;14.492;2022-12-01T06:17:18;42.80;;;17.20;;
75787;SDS011;64406;50.024;14.492;2022-12-01T06:19:43;33.60;;;16.30;;
75787;SDS011;64406;50.024;14.492;2022-12-01T06:22:09;38.30;;;18.53;;
75787;SDS011;64406;50.024;14.492;2022-12-01T06:24:35;40.00;;;17.23;;
75787;SDS011;64406;50.024;14.492;2022-12-01T06:27:01;35.70;;;16.87;;
75787;SDS011;64406;50.024;14.492;2022-12-01T06:29:26;32.73;;;16.47;;
75787;SDS011;64406;50.024;14.492;2022-12-01T06:31:52;31.83;;;16.40;;
75787;SDS011;64406;50.024;14.492;2022-12-01T06:34:18;35.83;;;17.00;;
75787;SDS011;64406;50.024;14.492;2022-12-01T06:36:43;33.87;;;16.07;;
75787;SDS011;64406;50.024;14.492;2022-12-01T06:39:09;34.27;;;16.27;;
75787;SDS011;64406;50.024;14.492;2022-12-01T06:41:38;34.60;;;16.17;;
75787;SDS011;64406;50.024;14.492;2022-12-01T06:44:03;39.57;;;17.70;;
75787;SDS011;64406;50.024;14.492;2022-12-01T06:46:29;33.30;;;17.80;;
75787;SDS011;64406;50.024;14.492;2022-12-01T06:48:55;33.97;;;16.00;;
75787;SDS011;64406;50.024;14.492;2022-12-01T06:51:21;39.60;;;16.20;;
75787;SDS011;64406;50.024;14.492;2022-12-01T06:53:47;37.73;;;18.90;;
75787;SDS011;64406;50.024;14.492;2022-12-01T06:56:13;43.83;;;17.80;;
75787;SDS011;64406;50.024;14.492;2022-12-01T06:58:38;37.80;;;16.90;;
75787;SDS011;64406;50.024;14.492;2022-12-01T07:01:10;40.53;;;17.77;;
75787;SDS011;64406;50.024;14.492;2022-12-01T07:03:37;37.17;;;16.47;;
75787;SDS011;64406;50.024;14.492;2022-12-01T07:06:03;33.10;;;15.40;;
75787;SDS011;64406;50.024;14.492;2022-12-01T07:08:30;34.97;;;14.40;;
75787;SDS011;64406;50.024;14.492;2022-12-01T07:13:30;29.47;;;15.77;;
75787;SDS011;64406;50.024;14.492;2022-12-01T07:15:56;34.63;;;15.13;;
75787;SDS011;64406;50.024;14.492;2022-12-01T07:18:22;37.93;;;17.53;;
75787;SDS011;64406;50.024;14.492;2022-12-01T07:20:47;34.73;;;16.13;;
75787;SDS011;64406;50.024;14.492;2022-12-01T07:23:13;30.80;;;14.00;;
75787;SDS011;64406;50.024;14.492;2022-12-01T07:25:39;32.47;;;16.33;;
75787;SDS011;64406;50.024;14.492;2022-12-01T07:28:04;35.30;;;16.17;;
75787;SDS011;64406;50.024;14.492;2022-12-01T07:30:30;33.93;;;15.60;;
75787;SDS011;64406;50.024;14.492;2022-12-01T07:32:55;32.70;;;15.53;;
75787;SDS011;64406;50.024;14.492;2022-12-01T07:35:21;33.10;;;16.47;;
75787;SDS011;64406;50.024;14.492;2022-12-01T07:37:47;35.63;;;16.07;;
75787;SDS011;64406;50.024;14.492;2022-12-01T07:40:19;32.57;;;15.20;;
75787;SDS011;64406;50.024;14.492;2022-12-01T07:42:44;43.37;;;17.27;;
75787;SDS011;64406;50.024;14.492;2022-12-01T07:45:11;43.47;;;18.03;;
75787;SDS011;64406;50.024;14.492;2022-12-01T07:47:37;34.83;;;16.13;;
75787;SDS011;64406;50.024;14.492;2022-12-01T07:50:02;33.90;;;17.10;;
75787;SDS011;64406;50.024;14.492;2022-12-01T07:52:28;39.40;;;16.67;;
75787;SDS011;64406;50.024;14.492;2022-12-01T07:54:54;29.80;;;16.33;;
75787;SDS011;64406;50.024;14.492;2022-12-01T07:57:20;38.33;;;17.40;;
75787;SDS011;64406;50.024;14.492;2022-12-01T07:59:45;36.53;;;17.87;;
75787;SDS011;64406;50.024;14.492;2022-12-01T08:02:11;37.57;;;17.33;;
75787;SDS011;64406;50.024;14.492;2022-12-01T08:04:38;35.43;;;17.23;;
75787;SDS011;64406;50.024;14.492;2022-12-01T08:07:03;38.87;;;18.07;;
75787;SDS011;64406;50.024;14.492;2022-12-01T08:09:29;36.83;;;16.37;;
75787;SDS011;64406;50.024;14.492;2022-12-01T08:11:55;35.73;;;15.97;;
75787;SDS011;64406;50.024;14.492;2022-12-01T08:14:20;35.67;;;16.70;;
75787;SDS011;64406;50.024;14.492;2022-12-01T08:16:47;34.50;;;16.67;;
75787;SDS011;64406;50.024;14.492;2022-12-01T08:19:13;33.73;;;16.53;;
75787;SDS011;64406;50.024;14.492;2022-12-01T08:21:38;37.47;;;16.37;;
75787;SDS011;64406;50.024;14.492;2022-12-01T08:24:04;41.43;;;16.40;;
75787;SDS011;64406;50.024;14.492;2022-12-01T08:26:30;36.80;;;17.23;;
75787;SDS011;64406;50.024;14.492;2022-12-01T08:28:56;40.63;;;18.30;;
75787;SDS011;64406;50.024;14.492;2022-12-01T08:31:23;33.97;;;16.20;;
75787;SDS011;64406;50.024;14.492;2022-12-01T08:33:54;36.43;;;15.97;;
75787;SDS011;64406;50.024;14.492;2022-12-01T08:36:20;32.40;;;14.77;;
75787;SDS011;64406;50.024;14.492;2022-12-01T08:38:47;38.43;;;16.57;;
75787;SDS011;64406;50.024;14.492;2022-12-01T08:41:15;37.10;;;17.30;;
75787;SDS011;64406;50.024;14.492;2022-12-01T08:43:41;34.10;;;16.23;;
75787;SDS011;64406;50.024;14.492;2022-12-01T08:46:10;38.47;;;17.80;;
75787;SDS011;64406;50.024;14.492;2022-12-01T08:48:37;33.60;;;16.70;;
75787;SDS011;64406;50.024;14.492;2022-12-01T08:51:07;35.63;;;16.47;;
75787;SDS011;64406;50.024;14.492;2022-12-01T08:53:35;36.97;;;16.10;;
75787;SDS011;64406;50.024;14.492;2022-12-01T08:56:03;34.00;;;17.67;;
75787;SDS011;64406;50.024;14.492;2022-12-01T08:58:31;35.80;;;17.20;;
75787;SDS011;64406;50.024;14.492;2022-12-01T09:01:03;32.00;;;16.23;;
75787;SDS011;64406;50.024;14.492;2022-12-01T09:03:32;28.75;;;14.32;;
75787;SDS011;64406;50.024;14.492;2022-12-01T09:06:11;36.70;;;16.37;;
75787;SDS011;64406;50.024;14.492;2022-12-01T09:08:41;35.83;;;15.10;;
75787;SDS011;64406;50.024;14.492;2022-12-01T09:11:09;32.00;;;15.33;;
75787;SDS011;64406;50.024;14.492;2022-12-01T09:13:37;38.15;;;17.27;;
75787;SDS011;64406;50.024;14.492;2022-12-01T09:16:10;39.28;;;16.90;;
75787;SDS011;64406;50.024;14.492;2022-12-01T09:18:37;36.77;;;16.37;;
75787;SDS011;64406;50.024;14.492;2022-12-01T09:21:10;29.95;;;15.15;;
75787;SDS011;64406;50.024;14.492;2022-12-01T09:23:36;38.03;;;16.23;;
75787;SDS011;64406;50.024;14.492;2022-12-01T09:26:03;31.40;;;14.20;;
75787;SDS011;64406;50.024;14.492;2022-12-01T09:28:30;32.75;;;14.27;;
75787;SDS011;64406;50.024;14.492;2022-12-01T09:30:55;29.60;;;14.90;;
75787;SDS011;64406;50.024;14.492;2022-12-01T09:33:21;33.97;;;13.52;;
75787;SDS011;64406;50.024;14.492;2022-12-01T09:35:46;32.35;;;14.23;;
75787;SDS011;64406;50.024;14.492;2022-12-01T09:38:12;29.23;;;13.93;;
75787;SDS011;64406;50.024;14.492;2022-12-01T09:40:41;30.50;;;14.50;;
75787;SDS011;64406;50.024;14.492;2022-12-01T09:43:13;29.55;;;13.43;;
75787;SDS011;64406;50.024;14.492;2022-12-01T09:45:47;29.35;;;13.38;;
75787;SDS011;64406;50.024;14.492;2022-12-01T09:48:23;33.47;;;14.88;;
75787;SDS011;64406;50.024;14.492;2022-12-01T09:50:53;32.53;;;14.60;;
75787;SDS011;64406;50.024;14.492;2022-12-01T09:53:20;32.58;;;15.30;;
75787;SDS011;64406;50.024;14.492;2022-12-01T09:55:48;40.97;;;18.35;;
75787;SDS011;64406;50.024;14.492;2022-12-01T09:58:19;40.90;;;15.88;;
75787;SDS011;64406;50.024;14.492;2022-12-01T10:00:48;35.75;;;15.07;;
75787;SDS011;64406;50.024;14.492;2022-12-01T10:03:36;31.33;;;13.40;;
75787;SDS011;64406;50.024;14.492;2022-12-01T10:09:10;32.28;;;13.35;;
75787;SDS011;64406;50.024;14.492;2022-12-01T10:14:08;31.35;;;13.60;;
75787;SDS011;64406;50.024;14.492;2022-12-01T10:16:41;31.75;;;13.30;;
75787;SDS011;64406;50.024;14.492;2022-12-01T10:24:38;36.88;;;13.60;;
75787;SDS011;64406;50.024;14.492;2022-12-01T10:32:39;32.80;;;14.02;;
75787;SDS011;64406;50.024;14.492;2022-12-01T10:35:16;39.15;;;15.20;;
75787;SDS011;64406;50.024;14.492;2022-12-01T10:37:43;39.13;;;15.60;;
75787;SDS011;64406;50.024;14.492;2022-12-01T10:40:14;34.78;;;14.25;;
75787;SDS011;64406;50.024;14.492;2022-12-01T10:42:44;33.53;;;14.63;;
75787;SDS011;64406;50.024;14.492;2022-12-01T10:46:32;42.33;;;16.10;;
75787;SDS011;64406;50.024;14.492;2022-12-01T10:49:09;47.28;;;16.42;;
75787;SDS011;64406;50.024;14.492;2022-12-01T10:51:50;35.42;;;15.43;;
75787;SDS011;64406;50.024;14.492;2022-12-01T10:54:23;32.78;;;15.20;;
75787;SDS011;64406;50.024;14.492;2022-12-01T10:56:57;36.30;;;15.02;;
75787;SDS011;64406;50.024;14.492;2022-12-01T10:59:28;37.30;;;16.10;;
75787;SDS011;64406;50.024;14.492;2022-12-01T11:01:58;39.88;;;16.13;;
75787;SDS011;64406;50.024;14.492;2022-12-01T11:04:28;32.67;;;14.65;;
75787;SDS011;64406;50.024;14.492;2022-12-01T11:10:12;34.72;;;13.95;;
75787;SDS011;64406;50.024;14.492;2022-12-01T11:12:39;35.55;;;14.75;;
75787;SDS011;64406;50.024;14.492;2022-12-01T11:15:06;36.58;;;15.10;;
75787;SDS011;64406;50.024;14.492;2022-12-01T11:17:37;38.90;;;16.85;;
75787;SDS011;64406;50.024;14.492;2022-12-01T11:25:52;44.08;;;17.13;;
75787;SDS011;64406;50.024;14.492;2022-12-01T11:28:20;39.05;;;15.25;;
75787;SDS011;64406;50.024;14.492;2022-12-01T11:30:46;42.70;;;17.20;;
75787;SDS011;64406;50.024;14.492;2022-12-01T11:33:23;39.05;;;15.82;;
75787;SDS011;64406;50.024;14.492;2022-12-01T11:35:49;40.15;;;16.50;;
75787;SDS011;64406;50.024;14.492;2022-12-01T11:38:20;43.17;;;17.23;;
75787;SDS011;64406;50.024;14.492;2022-12-01T11:40:49;38.55;;;16.27;;
75787;SDS011;64406;50.024;14.492;2022-12-01T11:43:21;39.93;;;16.77;;
75787;SDS011;64406;50.024;14.492;2022-12-01T11:45:57;38.67;;;15.82;;
75787;SDS011;64406;50.024;14.492;2022-12-01T11:48:27;43.50;;;17.77;;
75787;SDS011;64406;50.024;14.492;2022-12-01T11:51:05;38.47;;;16.35;;
75787;SDS011;64406;50.024;14.492;2022-12-01T11:53:41;43.28;;;18.25;;
75787;SDS011;64406;50.024;14.492;2022-12-01T11:56:24;45.00;;;17.08;;
75787;SDS011;64406;50.024;14.492;2022-12-01T11:59:02;48.55;;;19.25;;
75787;SDS011;64406;50.024;14.492;2022-12-01T12:01:58;36.83;;;15.65;;
75787;SDS011;64406;50.024;14.492;2022-12-01T12:04:41;38.97;;;15.48;;
75787;SDS011;64406;50.024;14.492;2022-12-01T12:07:25;45.70;;;16.52;;
75787;SDS011;64406;50.024;14.492;2022-12-01T12:10:18;40.30;;;15.98;;
75787;SDS011;64406;50.024;14.492;2022-12-01T12:18:23;41.80;;;15.80;;
75787;SDS011;64406;50.024;14.492;2022-12-01T12:21:07;36.55;;;15.52;;
75787;SDS011;64406;50.024;14.492;2022-12-01T12:23:40;41.33;;;16.40;;
75787;SDS011;64406;50.024;14.492;2022-12-01T12:26:27;40.70;;;15.35;;
75787;SDS011;64406;50.024;14.492;2022-12-01T12:34:26;34.30;;;14.82;;
75787;SDS011;64406;50.024;14.492;2022-12-01T12:42:35;38.60;;;16.23;;
75787;SDS011;64406;50.024;14.492;2022-12-01T12:45:17;36.20;;;14.15;;
75787;SDS011;64406;50.024;14.492;2022-12-01T12:53:18;36.83;;;14.15;;
75787;SDS011;64406;50.024;14.492;2022-12-01T12:55:47;38.38;;;14.65;;
75787;SDS011;64406;50.024;14.492;2022-12-01T13:00:54;38.45;;;14.43;;
75787;SDS011;64406;50.024;14.492;2022-12-01T13:06:13;39.97;;;15.73;;
75787;SDS011;64406;50.024;14.492;2022-12-01T13:09:02;40.97;;;15.70;;
75787;SDS011;64406;50.024;14.492;2022-12-01T13:11:35;36.15;;;14.80;;
75787;SDS011;64406;50.024;14.492;2022-12-01T13:14:26;39.58;;;15.35;;
75787;SDS011;64406;50.024;14.492;2022-12-01T13:17:10;37.08;;;15.05;;
75787;SDS011;64406;50.024;14.492;2022-12-01T13:19:45;37.60;;;14.30;;
75787;SDS011;64406;50.024;14.492;2022-12-01T13:22:12;34.78;;;13.65;;
75787;SDS011;64406;50.024;14.492;2022-12-01T13:24:40;32.90;;;13.15;;
75787;SDS011;64406;50.024;14.492;2022-12-01T13:29:47;38.08;;;15.25;;
75787;SDS011;64406;50.024;14.492;2022-12-01T13:32:31;37.97;;;14.45;;
75787;SDS011;64406;50.024;14.492;2022-12-01T13:35:00;38.03;;;14.77;;
75787;SDS011;64406;50.024;14.492;2022-12-01T13:37:32;37.72;;;15.45;;
75787;SDS011;64406;50.024;14.492;2022-12-01T13:40:15;41.67;;;15.88;;
75787;SDS011;64406;50.024;14.492;2022-12-01T13:43:02;34.92;;;13.93;;
75787;SDS011;64406;50.024;14.492;2022-12-01T13:45:34;37.47;;;16.13;;
75787;SDS011;64406;50.024;14.492;2022-12-01T13:48:02;34.78;;;13.40;;
75787;SDS011;64406;50.024;14.492;2022-12-01T13:58:48;36.70;;;14.35;;
75787;SDS011;64406;50.024;14.492;2022-12-01T14:06:45;39.50;;;15.13;;
75787;SDS011;64406;50.024;14.492;2022-12-01T14:12:03;45.78;;;17.40;;
75787;SDS011;64406;50.024;14.492;2022-12-01T14:14:43;48.60;;;16.23;;
75787;SDS011;64406;50.024;14.492;2022-12-01T14:17:31;48.97;;;19.25;;
75787;SDS011;64406;50.024;14.492;2022-12-01T14:20:05;49.75;;;17.58;;
75787;SDS011;64406;50.024;14.492;2022-12-01T14:22:44;39.28;;;16.15;;
75787;SDS011;64406;50.024;14.492;2022-12-01T14:27:49;54.08;;;17.92;;
75787;SDS011;64406;50.024;14.492;2022-12-01T14:39:11;47.28;;;17.70;;
75787;SDS011;64406;50.024;14.492;2022-12-01T14:41:55;57.60;;;19.20;;
75787;SDS011;64406;50.024;14.492;2022-12-01T14:44:26;44.10;;;16.13;;
75787;SDS011;64406;50.024;14.492;2022-12-01T14:46:59;41.92;;;16.48;;
75787;SDS011;64406;50.024;14.492;2022-12-01T14:49:33;45.88;;;16.92;;
75787;SDS011;64406;50.024;14.492;2022-12-01T14:52:05;53.47;;;16.90;;
75787;SDS011;64406;50.024;14.492;2022-12-01T14:54:46;41.78;;;16.88;;
75787;SDS011;64406;50.024;14.492;2022-12-01T14:57:15;45.92;;;15.85;;
75787;SDS011;64406;50.024;14.492;2022-12-01T14:59:44;47.65;;;18.77;;
75787;SDS011;64406;50.024;14.492;2022-12-01T15:02:10;43.17;;;16.88;;
75787;SDS011;64406;50.024;14.492;2022-12-01T15:07:37;58.65;;;19.98;;
75787;SDS011;64406;50.024;14.492;2022-12-01T15:10:04;50.83;;;19.40;;
75787;SDS011;64406;50.024;14.492;2022-12-01T15:12:31;52.42;;;20.27;;
75787;SDS011;64406;50.024;14.492;2022-12-01T15:14:57;43.67;;;18.90;;
75787;SDS011;64406;50.024;14.492;2022-12-01T15:17:32;49.45;;;17.38;;
75787;SDS011;64406;50.024;14.492;2022-12-01T15:20:01;52.42;;;20.17;;
75787;SDS011;64406;50.024;14.492;2022-12-01T15:22:30;47.85;;;17.60;;
75787;SDS011;64406;50.024;14.492;2022-12-01T15:25:32;51.65;;;19.17;;
75787;SDS011;64406;50.024;14.492;2022-12-01T15:28:10;59.63;;;20.42;;
75787;SDS011;64406;50.024;14.492;2022-12-01T15:30:45;42.63;;;17.40;;
75787;SDS011;64406;50.024;14.492;2022-12-01T15:33:26;52.63;;;18.90;;
75787;SDS011;64406;50.024;14.492;2022-12-01T15:35:55;62.72;;;19.50;;
75787;SDS011;64406;50.024;14.492;2022-12-01T15:38:24;56.92;;;20.17;;
75787;SDS011;64406;50.024;14.492;2022-12-01T15:40:53;53.30;;;19.80;;
75787;SDS011;64406;50.024;14.492;2022-12-01T15:43:22;50.63;;;19.53;;
75787;SDS011;64406;50.024;14.492;2022-12-01T15:45:57;55.45;;;21.25;;
75787;SDS011;64406;50.024;14.492;2022-12-01T15:48:29;54.20;;;20.40;;
75787;SDS011;64406;50.024;14.492;2022-12-01T15:53:47;55.05;;;19.33;;
75787;SDS011;64406;50.024;14.492;2022-12-01T15:56:22;56.65;;;19.00;;
75787;SDS011;64406;50.024;14.492;2022-12-01T15:58:54;64.18;;;20.98;;
75787;SDS011;64406;50.024;14.492;2022-12-01T16:01:28;55.97;;;20.60;;
75787;SDS011;64406;50.024;14.492;2022-12-01T16:04:00;56.33;;;19.60;;
75787;SDS011;64406;50.024;14.492;2022-12-01T16:06:35;60.23;;;21.00;;
75787;SDS011;64406;50.024;14.492;2022-12-01T16:09:24;58.88;;;18.92;;
75787;SDS011;64406;50.024;14.492;2022-12-01T16:17:43;53.70;;;19.35;;
75787;SDS011;64406;50.024;14.492;2022-12-01T16:22:45;62.47;;;22.25;;
75787;SDS011;64406;50.024;14.492;2022-12-01T16:25:15;58.60;;;20.40;;
75787;SDS011;64406;50.024;14.492;2022-12-01T16:27:47;57.28;;;20.25;;
75787;SDS011;64406;50.024;14.492;2022-12-01T16:30:19;58.38;;;23.25;;
75787;SDS011;64406;50.024;14.492;2022-12-01T16:32:47;60.00;;;22.15;;
75787;SDS011;64406;50.024;14.492;2022-12-01T16:37:49;58.30;;;21.02;;
75787;SDS011;64406;50.024;14.492;2022-12-01T16:40:15;57.03;;;20.67;;
75787;SDS011;64406;50.024;14.492;2022-12-01T16:42:43;58.92;;;21.67;;